createdAt,value
2018-05-03T18:52:46.076Z,17.25
2018-05-03T18:54:47.514Z,17.18
2018-05-03T18:56:48.916Z,17.07
2018-05-03T18:58:50.339Z,16.99
2018-05-03T19:00:51.845Z,16.96
2018-05-03T19:02:53.254Z,16.93
2018-05-03T19:04:54.734Z,16.89
2018-05-03T19:06:56.125Z,16.92
2018-05-03T19:08:57.622Z,16.81
2018-05-03T19:10:59.033Z,16.78
2018-05-03T19:13:00.478Z,16.78
2018-05-03T19:15:01.875Z,16.80
2018-05-03T19:17:03.294Z,16.71
2018-05-03T19:19:04.824Z,16.75
2018-05-03T19:21:06.240Z,16.65
2018-05-03T19:23:07.659Z,16.62
2018-05-03T19:25:09.079Z,16.55
2018-05-03T19:27:10.501Z,16.53
2018-05-03T19:29:11.924Z,16.49
2018-05-03T19:31:13.343Z,16.49
2018-05-03T19:33:14.764Z,16.44
2018-05-03T19:35:16.187Z,16.41
2018-05-03T19:37:17.611Z,16.44
2018-05-03T19:39:19.029Z,16.37
2018-05-03T19:41:20.455Z,16.27
2018-05-03T19:43:21.944Z,16.31
2018-05-03T19:45:23.299Z,16.30
2018-05-03T19:47:24.716Z,16.33
2018-05-03T19:49:26.141Z,16.30
2018-05-03T19:51:27.561Z,16.30
2018-05-03T19:53:28.985Z,16.25
2018-05-03T19:55:30.409Z,16.23
2018-05-03T19:57:31.835Z,16.09
2018-05-03T19:59:33.253Z,16.11
2018-05-03T20:01:34.672Z,16.06
2018-05-03T20:03:36.168Z,15.93
2018-05-03T20:05:37.509Z,15.92
2018-05-03T20:07:38.932Z,15.93
2018-05-03T20:09:40.356Z,15.89
2018-05-03T20:11:41.775Z,15.86
2018-05-03T20:13:43.235Z,15.79
2018-05-03T20:15:44.646Z,15.74
2018-05-03T20:17:46.065Z,15.81
2018-05-03T20:19:47.486Z,15.74
2018-05-03T20:21:48.922Z,15.76
2018-05-03T20:23:50.331Z,15.75
2018-05-03T20:25:51.754Z,15.76
2018-05-03T20:27:53.176Z,15.75
2018-05-03T20:29:54.594Z,15.76
2018-05-03T20:31:56.015Z,15.66
2018-05-03T20:33:57.436Z,15.68
2018-05-03T20:35:58.852Z,15.61
2018-05-03T20:38:00.270Z,15.70
2018-05-03T20:40:01.693Z,15.57
2018-05-03T20:42:03.116Z,15.56
2018-05-03T20:44:04.531Z,15.61
2018-05-03T20:46:06.030Z,15.51
2018-05-03T20:48:07.374Z,15.43
2018-05-03T20:50:08.793Z,15.43
2018-05-03T20:52:10.213Z,15.48
2018-05-03T20:54:11.631Z,15.38
2018-05-03T20:56:13.143Z,15.31
2018-05-03T20:58:14.563Z,15.28
2018-05-03T21:00:15.996Z,15.35
2018-05-03T21:02:17.404Z,15.28
2018-05-03T21:04:18.821Z,15.21
2018-05-03T21:06:20.243Z,15.21
2018-05-03T21:08:21.672Z,15.12
2018-05-03T21:10:23.083Z,15.08
2018-05-03T21:12:24.505Z,15.08
2018-05-03T21:14:25.927Z,15.05
2018-05-03T21:16:27.345Z,14.91
2018-05-03T21:18:28.770Z,14.90
2018-05-03T21:20:30.193Z,14.84
2018-05-03T21:22:31.614Z,14.78
2018-05-03T21:24:33.031Z,14.78
2018-05-03T21:26:34.454Z,14.75
2018-05-03T21:28:35.943Z,14.74
2018-05-03T21:30:37.289Z,14.74
2018-05-03T21:32:38.714Z,14.74
2018-05-03T21:34:40.144Z,14.64
2018-05-03T21:36:41.552Z,14.64
2018-05-03T21:38:42.981Z,14.52
2018-05-03T21:40:44.398Z,14.50
2018-05-03T21:42:45.819Z,14.38
2018-05-03T21:44:47.231Z,14.42
2018-05-03T21:46:48.651Z,14.42
2018-05-03T21:48:50.067Z,14.32
2018-05-03T21:50:51.500Z,14.24
2018-05-03T21:52:52.901Z,14.31
2018-05-03T21:54:54.320Z,14.20
2018-05-03T21:56:55.738Z,14.24
2018-05-03T21:58:57.157Z,14.17
2018-05-03T22:00:58.578Z,14.09
2018-05-03T22:02:59.996Z,13.98
2018-05-03T22:05:01.415Z,14.06
2018-05-03T22:07:02.849Z,14.01
2018-05-03T22:09:04.249Z,14.01
2018-05-03T22:11:05.669Z,13.91
2018-05-03T22:13:07.090Z,13.92
2018-05-03T22:15:08.510Z,13.83
2018-05-03T22:17:09.919Z,13.83
2018-05-03T22:19:11.339Z,13.80
2018-05-03T22:21:12.757Z,13.77
2018-05-03T22:23:14.177Z,13.73
2018-05-03T22:25:15.605Z,13.76
2018-05-03T22:27:17.022Z,13.74
2018-05-03T22:29:18.439Z,13.65
2018-05-03T22:31:19.861Z,13.59
2018-05-03T22:33:21.275Z,13.58
2018-05-03T22:35:22.691Z,13.58
2018-05-03T22:37:24.110Z,13.49
2018-05-03T22:39:25.527Z,13.44
2018-05-03T22:41:26.950Z,13.43
2018-05-03T22:43:28.366Z,13.41
2018-05-03T22:45:29.781Z,13.38
2018-05-03T22:47:31.197Z,13.36
2018-05-03T22:49:32.616Z,13.32
2018-05-03T22:51:34.035Z,13.30
2018-05-03T22:53:35.454Z,13.22
2018-05-03T22:55:36.873Z,13.40
2018-05-03T22:57:38.288Z,13.20
2018-05-03T22:59:39.727Z,13.15
2018-05-03T23:01:41.131Z,13.20
2018-05-03T23:03:42.550Z,13.17
2018-05-03T23:05:43.968Z,13.07
2018-05-03T23:07:45.384Z,13.06
2018-05-03T23:09:46.802Z,13.02
2018-05-03T23:11:48.219Z,12.92
2018-05-03T23:13:49.638Z,12.95
2018-05-03T23:15:51.049Z,12.89
2018-05-03T23:17:52.464Z,12.92
2018-05-03T23:19:53.880Z,12.93
2018-05-03T23:21:55.298Z,12.81
2018-05-03T23:23:56.716Z,12.78
2018-05-03T23:25:58.130Z,12.69
2018-05-03T23:27:59.545Z,12.79
2018-05-03T23:30:00.961Z,12.66
2018-05-03T23:32:02.378Z,12.69
2018-05-03T23:34:03.792Z,12.63
2018-05-03T23:36:05.206Z,12.69
2018-05-03T23:38:06.625Z,12.66
2018-05-03T23:40:08.048Z,12.64
2018-05-03T23:42:09.457Z,12.57
2018-05-03T23:44:10.873Z,12.56
2018-05-03T23:46:12.290Z,12.54
2018-05-03T23:48:13.701Z,12.49
2018-05-03T23:50:15.123Z,12.46
2018-05-03T23:52:16.542Z,12.45
2018-05-03T23:54:17.959Z,12.38
2018-05-03T23:56:19.378Z,12.37
2018-05-03T23:58:20.799Z,12.38
